Time;durP1;ratioP1;P1;durP2;ratioP2;P2;SDS_P1;SDS_P2;PMS_P1;PMS_P2;Temp;Humidity;BMP_temperature;BMP_pressure;BME280_temperature;BME280_humidity;BME280_pressure;Samples;Min_cycle;Max_cycle;Signal;HPM_P1;HPM_P2
2023/01/12 00:03:41;;;;;;;6.53;2.60;;;;;;;17.19;62.70;97166.31;10380336;28;20041;-27
2023/01/12 00:08:41;;;;;;;2.40;1.77;;;;;;;17.22;62.63;97175.59;10380864;28;20022;-26
2023/01/12 00:13:42;;;;;;;4.57;2.00;;;;;;;17.20;62.54;97151.97;10384159;28;20027;-26
2023/01/12 00:18:42;;;;;;;2.72;1.38;;;;;;;17.18;62.63;97154.50;10377847;28;20034;-27
2023/01/12 00:23:43;;;;;;;3.03;1.60;;;;;;;17.17;62.69;97151.94;10370063;28;20037;-27
2023/01/12 00:28:43;;;;;;;2.60;1.77;;;;;;;17.13;62.63;97145.13;10369262;28;20380;-28
2023/01/12 00:33:44;;;;;;;3.30;1.70;;;;;;;17.13;62.97;97140.06;10374965;28;20052;-26
2023/01/12 00:38:44;;;;;;;3.83;1.60;;;;;;;17.15;62.80;97128.31;10386676;28;20029;-27
2023/01/12 00:49:04;;;;;;;3.55;1.90;;;;;;;17.10;63.01;97140.91;10369984;28;20572;-26
2023/01/12 00:54:07;;;;;;;2.55;2.03;;;;;;;17.13;62.75;97140.06;10379542;28;20037;-26
2023/01/12 00:59:07;;;;;;;2.97;2.15;;;;;;;17.13;62.19;97137.53;10378693;28;20087;-25
2023/01/12 01:04:07;;;;;;;2.77;1.93;;;;;;;17.15;62.78;97143.50;10381000;28;20497;-26
2023/01/12 01:09:08;;;;;;;3.33;1.50;;;;;;;17.12;62.71;97128.25;10379406;28;20041;-27
2023/01/12 01:14:08;;;;;;;1.93;1.33;;;;;;;17.16;62.68;97120.72;10392612;28;20041;-25
2023/01/12 01:19:09;;;;;;;2.15;1.70;;;;;;;17.20;62.52;97106.41;10381207;28;20835;-26
2023/01/12 01:24:11;;;;;;;2.00;1.30;;;;;;;17.20;62.27;97126.66;10377913;28;20454;-26
2023/01/12 01:29:11;;;;;;;3.15;1.88;;;;;;;17.18;62.62;97128.34;10380511;28;20105;-27
2023/01/12 01:34:12;;;;;;;2.90;1.60;;;;;;;17.13;62.56;97130.81;10382308;28;20539;-27
2023/01/12 01:39:12;;;;;;;3.15;1.90;;;;;;;17.11;62.69;97132.47;10381549;28;20301;-26
2023/01/12 01:44:28;;;;;;;3.30;1.57;;;;;;;17.13;62.58;97135.00;10394950;28;20037;-26
2023/01/12 01:49:31;;;;;;;2.88;1.55;;;;;;;17.09;62.92;97128.22;10377958;28;20136;-26
2023/01/12 01:54:36;;;;;;;2.33;1.35;;;;;;;17.10;62.61;97129.94;10381250;28;20061;-25
2023/01/12 01:59:41;;;;;;;3.45;2.38;;;;;;;17.10;62.69;97140.91;10386652;28;20033;-27
2023/01/12 02:04:42;;;;;;;1.70;1.40;;;;;;;17.08;62.73;97136.66;10390019;28;20026;-26
2023/01/12 02:09:43;;;;;;;3.53;1.55;;;;;;;17.09;62.80;97123.16;10391466;28;20120;-25
2023/01/12 02:20:47;;;;;;;4.85;1.48;;;;;;;17.10;62.63;97122.34;10374787;28;20542;-26
2023/01/12 02:26:03;;;;;;;2.42;1.42;;;;;;;17.09;62.72;97108.00;10366433;28;20045;-26
2023/01/12 02:31:09;;;;;;;2.43;1.67;;;;;;;17.16;62.43;97094.59;10376787;28;20563;-26
2023/01/12 02:36:17;;;;;;;2.20;1.30;;;;;;;17.17;62.37;97093.75;10373628;28;20038;-26
2023/01/12 02:47:00;;;;;;;2.45;1.75;;;;;;;17.11;62.67;97111.38;10379325;28;20196;-29
2023/01/12 02:52:07;;;;;;;2.05;1.25;;;;;;;17.09;62.49;97108.00;10375685;28;20171;-25
2023/01/12 02:57:09;;;;;;;3.03;1.65;;;;;;;17.08;62.74;97065.81;10347706;28;20084;-27
2023/01/12 03:02:15;;;;;;;3.85;1.40;;;;;;;17.08;62.93;97081.84;10361644;28;20038;-26
2023/01/12 03:07:18;;;;;;;4.18;1.33;;;;;;;17.09;62.55;97108.81;10379196;28;20032;-26
2023/01/12 03:12:25;;;;;;;3.03;1.73;;;;;;;17.07;62.58;97090.25;10358872;28;20042;-25
2023/01/12 03:17:30;;;;;;;2.25;1.23;;;;;;;17.07;62.48;97074.25;10369897;28;20037;-26
2023/01/12 03:22:35;;;;;;;1.83;1.15;;;;;;;17.06;62.77;97087.72;10376553;28;20029;-26
2023/01/12 03:27:50;;;;;;;1.88;1.30;;;;;;;17.06;62.58;97080.97;10357780;28;20060;-26
2023/01/12 03:32:51;;;;;;;3.10;1.48;;;;;;;17.06;62.57;97088.56;10366222;28;20116;-26
2023/01/12 03:37:58;;;;;;;1.67;1.17;;;;;;;17.08;62.50;97101.25;10370632;28;20029;-26
2023/01/12 03:43:20;;;;;;;1.90;1.17;;;;;;;17.13;62.17;97079.34;10363695;28;20113;-26
2023/01/12 03:48:29;;;;;;;2.53;1.33;;;;;;;17.15;62.14;97082.78;10362483;28;20069;-26
2023/01/12 03:53:31;;;;;;;2.65;0.98;;;;;;;17.10;62.53;97071.75;10384545;28;20460;-26
2023/01/12 03:58:33;;;;;;;1.33;0.90;;;;;;;17.09;62.53;97057.41;10363580;28;20809;-26
2023/01/12 04:03:34;;;;;;;1.40;0.90;;;;;;;17.08;62.57;97075.94;10357315;28;20034;-26
2023/01/12 04:08:34;;;;;;;1.83;1.30;;;;;;;17.05;62.44;97080.94;10374814;28;20103;-26
2023/01/12 04:13:34;;;;;;;2.47;1.30;;;;;;;17.09;62.57;97072.56;10370964;28;20346;-26
2023/01/12 04:18:35;;;;;;;3.10;1.37;;;;;;;17.06;62.64;97077.63;10355866;28;20506;-25
2023/01/12 04:23:35;;;;;;;1.83;1.20;;;;;;;17.08;62.47;97070.88;10361414;28;20034;-26
2023/01/12 04:28:35;;;;;;;3.30;1.23;;;;;;;17.10;62.01;97066.69;10368245;28;20037;-26
2023/01/12 04:33:36;;;;;;;2.27;1.20;;;;;;;17.12;62.14;97062.47;10371539;28;20037;-26
2023/01/12 04:38:38;;;;;;;2.00;1.17;;;;;;;17.15;62.24;97063.38;10389894;28;20115;-25
2023/01/12 04:43:38;;;;;;;1.75;1.10;;;;;;;17.11;62.22;97045.59;10369335;28;20109;-26
2023/01/12 04:48:42;;;;;;;3.05;1.85;;;;;;;17.11;62.18;97065.84;10340590;28;20038;-29
2023/01/12 04:53:43;;;;;;;2.38;1.20;;;;;;;17.17;61.99;97050.75;10293556;28;20461;-26
2023/01/12 04:58:43;;;;;;;1.67;1.20;;;;;;;17.23;61.72;97050.81;10318266;28;20034;-26
2023/01/12 05:03:44;;;;;;;1.65;1.48;;;;;;;17.23;61.79;97043.22;10312916;28;20025;-27
2023/01/12 05:14:04;;;;;;;2.00;1.20;;;;;;;17.21;61.48;97062.56;10315550;28;20069;-26
2023/01/12 05:19:04;;;;;;;1.52;1.08;;;;;;;17.24;61.56;97065.16;10319815;28;20096;-27
2023/01/12 05:24:05;;;;;;;3.73;1.20;;;;;;;17.27;61.41;97063.50;10319992;28;20108;-27
2023/01/12 05:29:06;;;;;;;3.30;1.15;;;;;;;17.26;61.51;97051.66;10322533;28;20060;-27
2023/01/12 05:34:07;;;;;;;2.15;1.10;;;;;;;17.26;61.73;97071.91;10313892;28;20642;-26
2023/01/12 05:39:07;;;;;;;3.42;1.25;;;;;;;17.23;61.56;97044.06;10315320;28;20037;-28
2023/01/12 05:44:07;;;;;;;2.80;1.40;;;;;;;17.25;61.41;97026.38;10353816;28;20505;-27
2023/01/12 05:49:09;;;;;;;2.90;1.03;;;;;;;17.23;61.30;97021.28;10339947;28;20034;-26
2023/01/12 05:54:10;;;;;;;3.95;1.60;;;;;;;17.24;61.78;97012.84;10365105;28;20042;-26
2023/01/12 05:59:11;;;;;;;7.93;1.80;;;;;;;17.27;61.65;97017.97;10375628;28;20034;-27
2023/01/12 06:04:11;;;;;;;4.32;1.33;;;;;;;17.23;61.64;96995.16;10373733;28;20044;-26
2023/01/12 06:09:11;;;;;;;3.25;1.33;;;;;;;17.27;61.73;97006.97;10369538;28;20061;-27
2023/01/12 06:14:12;;;;;;;6.93;1.67;;;;;;;17.27;61.97;97014.56;10369634;28;20126;-26
2023/01/12 06:19:12;;;;;;;4.28;1.40;;;;;;;17.23;61.70;97035.63;10377814;28;20688;-26
2023/01/12 06:24:15;;;;;;;3.13;1.53;;;;;;;17.18;61.61;97033.06;10381195;28;20080;-26
2023/01/12 06:29:15;;;;;;;6.18;1.17;;;;;;;17.20;61.65;97025.47;10367097;28;20038;-26
2023/01/12 06:34:16;;;;;;;5.83;1.40;;;;;;;17.00;57.62;97024.41;10362562;28;20776;-28
2023/01/12 06:39:16;;;;;;;5.57;1.80;;;;;;;17.08;60.18;97016.06;10377816;28;20521;-25
2023/01/12 06:44:17;;;;;;;6.37;1.60;;;;;;;17.11;60.79;97010.19;10383201;28;20036;-25
2023/01/12 06:49:18;;;;;;;5.50;1.50;;;;;;;17.12;61.16;97006.81;10367528;28;20367;-26
2023/01/12 06:54:19;;;;;;;11.63;1.90;;;;;;;17.11;61.33;96995.00;10363012;28;20061;-26
2023/01/12 06:59:21;;;;;;;9.02;2.15;;;;;;;17.11;61.35;97002.59;10381214;28;20121;-27
2023/01/12 07:04:22;;;;;;;6.95;3.22;;;;;;;17.13;61.42;97000.94;10365239;28;20045;-26
2023/01/12 07:09:22;;;;;;;12.67;3.40;;;;;;;17.15;61.77;97001.81;10370146;28;20022;-26
2023/01/12 07:14:23;;;;;;;9.90;4.17;;;;;;;17.15;61.52;97002.66;10384236;28;20034;-26
2023/01/12 07:19:23;;;;;;;9.07;4.32;;;;;;;17.19;61.49;97001.00;10360162;28;20299;-27
2023/01/12 07:24:24;;;;;;;10.67;4.77;;;;;;;17.19;61.54;96998.47;10385186;28;20033;-27
2023/01/12 07:29:24;;;;;;;12.67;5.53;;;;;;;17.16;61.52;96988.31;10373538;28;20041;-26
2023/01/12 07:34:24;;;;;;;14.75;6.50;;;;;;;17.11;61.65;96984.91;10371084;28;20037;-28
2023/01/12 07:39:25;;;;;;;15.67;6.20;;;;;;;17.09;61.69;97011.88;10370388;28;20036;-26
2023/01/12 07:44:25;;;;;;;12.83;6.27;;;;;;;17.06;61.78;96997.50;10384822;28;20103;-26
2023/01/12 07:49:27;;;;;;;17.45;7.75;;;;;;;17.07;61.83;96988.25;10368891;28;20517;-26
2023/01/12 07:54:27;;;;;;;12.20;5.65;;;;;;;17.07;61.63;96978.13;10380691;28;20041;-26
2023/01/12 07:59:27;;;;;;;11.83;6.20;;;;;;;17.08;61.66;96995.00;10376963;28;20062;-26
2023/01/12 08:04:28;;;;;;;14.10;6.23;;;;;;;17.07;61.67;96990.78;10356540;28;20672;-26
2023/01/12 08:09:28;;;;;;;14.03;6.27;;;;;;;17.09;62.25;96974.75;10367307;28;20046;-26
2023/01/12 08:14:35;;;;;;;20.10;7.80;;;;;;;17.07;62.23;96970.53;10362419;28;20026;-26
2023/01/12 08:19:42;;;;;;;9.52;5.50;;;;;;;17.10;61.85;96979.00;10381775;28;20044;-25
2023/01/12 08:24:52;;;;;;;14.20;6.85;;;;;;;17.14;62.04;96990.00;10364815;28;20579;-26
2023/01/12 08:29:57;;;;;;;15.48;6.05;;;;;;;17.17;61.61;97020.38;10367585;28;20156;-26
2023/01/12 08:34:59;;;;;;;17.52;6.40;;;;;;;17.16;60.90;97008.56;10361870;28;20102;-26
2023/01/12 08:40:01;;;;;;;20.73;8.68;;;;;;;17.22;61.58;97009.47;10377030;28;20445;-26
2023/01/12 08:45:05;;;;;;;20.73;9.57;;;;;;;17.17;61.64;96982.44;10390155;28;20413;-25
2023/01/12 08:50:07;;;;;;;20.45;8.65;;;;;;;17.20;61.49;96985.84;10392707;28;20076;-25
2023/01/12 08:55:10;;;;;;;23.00;9.07;;;;;;;17.18;61.26;96994.25;10378929;28;20566;-26
2023/01/12 09:00:11;;;;;;;17.95;9.10;;;;;;;17.22;61.08;96984.16;10367041;28;20034;-26
2023/01/12 09:05:11;;;;;;;15.07;8.23;;;;;;;17.22;60.97;96988.34;10393082;28;20036;-26
2023/01/12 09:10:11;;;;;;;19.45;8.77;;;;;;;17.22;61.45;96998.47;10377496;28;20394;-27
2023/01/12 09:15:12;;;;;;;18.80;9.03;;;;;;;17.21;60.90;97006.91;10360487;28;20391;-26
2023/01/12 09:20:15;;;;;;;20.03;9.17;;;;;;;17.22;61.31;96999.34;10384336;28;20511;-27
2023/01/12 09:25:15;;;;;;;19.65;8.93;;;;;;;17.21;61.48;97019.56;10367263;28;20041;-26
2023/01/12 09:30:16;;;;;;;21.17;8.10;;;;;;;17.10;59.50;97016.09;10381784;28;20169;-25
2023/01/12 09:35:18;;;;;;;19.10;8.70;;;;;;;17.09;60.48;97010.16;10389335;28;20046;-24
2023/01/12 09:40:19;;;;;;;17.98;8.75;;;;;;;17.16;61.03;96998.44;10368899;28;20058;-26
2023/01/12 09:50:51;;;;;;;18.75;8.77;;;;;;;17.21;61.14;97022.09;10370379;28;20116;-26
2023/01/12 09:56:13;;;;;;;18.90;8.93;;;;;;;17.20;61.16;97031.38;10372000;28;20498;-27
2023/01/12 10:01:16;;;;;;;19.67;9.27;;;;;;;17.19;61.54;97036.41;10360294;28;20035;-25
2023/01/12 10:06:18;;;;;;;20.98;9.85;;;;;;;17.19;61.95;97033.88;10369690;28;20038;-26
2023/01/12 10:11:32;;;;;;;18.75;8.60;;;;;;;17.13;62.77;97024.56;10367611;28;20593;-25
2023/01/12 10:16:47;;;;;;;22.33;10.20;;;;;;;17.19;62.33;97024.63;10363594;28;20112;-26
2023/01/12 10:21:50;;;;;;;20.60;9.68;;;;;;;17.16;62.61;97006.03;10364814;28;20042;-26
2023/01/12 10:26:59;;;;;;;17.02;9.00;;;;;;;17.14;62.67;97005.19;10369345;28;20030;-25
2023/01/12 10:31:59;;;;;;;20.95;8.90;;;;;;;17.12;62.70;96991.66;10369994;28;20038;-26
2023/01/12 10:37:03;;;;;;;19.37;9.57;;;;;;;17.12;62.90;97005.16;10387811;28;20444;-26
2023/01/12 10:47:42;;;;;;;22.02;10.07;;;;;;;17.18;63.33;96984.13;10374958;28;20096;-25
2023/01/12 10:52:44;;;;;;;20.35;10.13;;;;;;;17.16;63.36;96978.22;10378724;28;20042;-26
2023/01/12 10:57:47;;;;;;;23.70;9.95;;;;;;;17.18;63.54;96986.66;10376511;28;20045;-26
2023/01/12 11:02:48;;;;;;;21.58;10.18;;;;;;;17.13;63.48;96968.03;10371293;28;20165;-27
2023/01/12 11:07:48;;;;;;;18.08;8.98;;;;;;;17.11;63.59;96984.91;10379659;28;20128;-26
2023/01/12 11:12:55;;;;;;;20.80;9.70;;;;;;;17.11;63.54;96980.69;10378463;28;20123;-25
2023/01/12 11:18:17;;;;;;;19.02;9.05;;;;;;;17.14;63.19;96964.72;10358448;28;20034;-25
2023/01/12 11:23:55;;;;;;;17.70;8.27;;;;;;;17.18;63.23;96961.34;10367906;28;20041;-25
2023/01/12 11:29:01;;;;;;;15.40;8.65;;;;;;;17.19;63.05;96963.91;10377914;28;20065;-25
2023/01/12 11:34:12;;;;;;;22.08;10.68;;;;;;;17.20;63.32;96962.22;10382341;28;20094;-26
2023/01/12 11:39:15;;;;;;;16.40;7.53;;;;;;;17.13;62.48;96957.91;10373908;28;20032;-26
2023/01/12 11:44:32;;;;;;;19.75;8.60;;;;;;;17.18;62.92;96936.06;10360976;28;20108;-26
2023/01/12 11:49:46;;;;;;;17.58;8.13;;;;;;;17.17;62.93;96924.25;10375760;28;20044;-25
2023/01/12 11:54:46;;;;;;;18.10;7.57;;;;;;;17.17;62.79;96919.19;10376144;28;20421;-26
2023/01/12 12:00:02;;;;;;;17.63;7.20;;;;;;;17.19;62.89;96922.56;10377312;28;20045;-27
2023/01/12 12:05:23;;;;;;;15.88;6.90;;;;;;;17.21;62.44;96920.88;10371897;28;20033;-28
2023/01/12 12:10:34;;;;;;;14.18;7.53;;;;;;;17.23;62.61;96904.88;10357132;28;20046;-26
2023/01/12 12:15:56;;;;;;;13.82;6.85;;;;;;;17.25;62.49;96908.28;10365972;28;20048;-26
2023/01/12 12:21:08;;;;;;;11.45;6.30;;;;;;;17.26;62.01;96904.06;10387031;28;20412;-26
2023/01/12 12:26:23;;;;;;;18.70;7.53;;;;;;;17.20;63.13;96888.84;10366290;28;20153;-26
2023/01/12 12:31:49;;;;;;;15.05;7.45;;;;;;;17.21;63.05;96924.28;10379757;28;20053;-26
2023/01/12 12:37:19;;;;;;;18.57;6.87;;;;;;;17.13;61.79;96897.22;10381863;28;20045;-28
2023/01/12 12:48:02;;;;;;;13.25;5.63;;;;;;;17.15;62.30;96880.38;10378159;28;20033;-26
2023/01/12 12:53:12;;;;;;;13.68;5.53;;;;;;;17.16;62.33;96892.19;10364213;28;20046;-26
2023/01/12 12:58:21;;;;;;;12.98;5.63;;;;;;;17.17;62.32;96891.34;10383033;28;20482;-26
2023/01/12 13:03:40;;;;;;;11.02;5.60;;;;;;;17.18;62.43;96876.19;10358036;28;20038;-25
2023/01/12 13:08:41;;;;;;;14.27;5.93;;;;;;;17.16;62.40;96861.84;10382077;28;20033;-26
2023/01/12 13:14:00;;;;;;;11.45;5.75;;;;;;;17.16;62.39;96856.78;10360400;28;20042;-26
2023/01/12 13:19:00;;;;;;;13.63;5.60;;;;;;;17.18;62.84;96875.34;10376404;28;20091;-27
2023/01/12 13:24:12;;;;;;;9.75;5.40;;;;;;;17.17;62.94;96866.06;10377203;28;20038;-25
2023/01/12 13:29:21;;;;;;;11.63;5.72;;;;;;;17.15;62.65;96850.03;10367553;28;20026;-26
2023/01/12 13:34:45;;;;;;;10.32;5.20;;;;;;;17.16;62.70;96851.72;10378954;28;20073;-26
2023/01/12 13:40:03;;;;;;;10.43;5.55;;;;;;;17.13;62.57;96855.06;10376017;28;20417;-26
2023/01/12 13:45:09;;;;;;;12.30;5.13;;;;;;;17.11;62.61;96843.22;10359127;28;20069;-26
2023/01/12 13:50:17;;;;;;;10.30;5.93;;;;;;;17.15;62.61;96850.03;10367597;28;20037;-25
2023/01/12 13:55:21;;;;;;;9.80;4.82;;;;;;;17.12;62.88;96855.03;10373955;28;20131;-28
2023/01/12 14:00:22;;;;;;;11.25;5.10;;;;;;;17.10;62.66;96861.78;10363212;28;20062;-25
2023/01/12 14:05:55;;;;;;;10.50;5.10;;;;;;;17.12;62.60;96852.50;10374503;28;20100;-26
2023/01/12 14:11:26;;;;;;;8.57;4.90;;;;;;;17.13;62.50;96852.53;10372378;28;20076;-26
2023/01/12 14:21:54;;;;;;;7.97;4.47;;;;;;;17.11;62.88;96843.22;10377991;28;20033;-26
2023/01/12 14:26:54;;;;;;;9.25;4.32;;;;;;;17.11;62.77;96848.28;10373495;28;20030;-25
2023/01/12 14:31:55;;;;;;;8.57;5.13;;;;;;;17.16;62.43;96846.66;10381526;28;20045;-27
2023/01/12 14:36:55;;;;;;;8.88;4.70;;;;;;;17.15;62.64;96858.44;10371332;28;20440;-26
2023/01/12 14:47:26;;;;;;;8.55;4.13;;;;;;;17.13;62.61;96826.38;10361749;28;20026;-25
2023/01/12 14:52:32;;;;;;;7.38;3.97;;;;;;;17.12;62.53;96814.56;10373260;28;20038;-26
2023/01/12 14:57:34;;;;;;;7.93;4.30;;;;;;;17.15;62.50;96809.56;10364058;28;20045;-25
2023/01/12 15:02:38;;;;;;;7.28;4.20;;;;;;;17.12;62.53;96819.63;10365272;28;20030;-25
2023/01/12 15:07:51;;;;;;;6.97;4.13;;;;;;;17.12;62.90;96812.03;10366929;28;20414;-26
2023/01/12 15:12:54;;;;;;;6.57;3.75;;;;;;;17.12;62.82;96812.03;10366285;28;20030;-26
2023/01/12 15:28:32;;;;;;;6.05;3.47;;;;;;;17.11;62.78;96793.50;10358868;28;20101;-27
2023/01/12 15:33:33;;;;;;;7.37;4.10;;;;;;;17.11;62.53;96798.56;10366496;28;20099;-26
2023/01/12 15:38:33;;;;;;;7.30;4.30;;;;;;;17.10;62.82;96791.81;10364642;28;20060;-25
2023/01/12 15:43:33;;;;;;;7.43;3.70;;;;;;;17.15;62.72;96801.97;10353734;28;20693;-25
2023/01/12 15:48:34;;;;;;;5.63;3.27;;;;;;;17.17;62.25;96798.56;10363059;28;20026;-26
2023/01/12 15:53:34;;;;;;;7.33;3.37;;;;;;;17.20;62.35;96811.28;10371668;28;20025;-25
2023/01/12 15:58:34;;;;;;;4.67;3.30;;;;;;;17.17;62.44;96818.00;10371887;28;20040;-26
2023/01/12 16:03:35;;;;;;;6.93;3.50;;;;;;;17.15;62.42;96799.44;10361654;28;20057;-26
2023/01/12 16:08:37;;;;;;;6.63;3.53;;;;;;;17.12;62.76;96789.28;10367671;28;20030;-26
2023/01/12 16:13:38;;;;;;;6.22;3.28;;;;;;;17.12;62.70;96786.75;10370948;28;20552;-26
2023/01/12 16:18:39;;;;;;;5.65;3.47;;;;;;;17.15;62.43;96784.25;10355681;28;20054;-26
2023/01/12 16:23:39;;;;;;;7.82;3.40;;;;;;;17.13;62.63;96781.69;10376379;28;20472;-26
2023/01/12 16:28:39;;;;;;;6.47;3.15;;;;;;;17.13;62.42;96781.69;10368426;28;20029;-26
2023/01/12 16:33:42;;;;;;;4.93;2.90;;;;;;;17.10;62.76;96783.38;10386261;23;20049;-27
2023/01/12 16:38:42;;;;;;;5.95;3.50;;;;;;;17.12;62.93;96786.75;10364842;28;20715;-27
2023/01/12 16:43:42;;;;;;;4.90;2.77;;;;;;;17.11;62.49;96783.38;10346398;28;20072;-27
2023/01/12 16:48:43;;;;;;;6.43;3.72;;;;;;;17.15;62.39;96784.25;10324390;28;20677;-27
2023/01/12 16:53:45;;;;;;;4.93;2.88;;;;;;;17.18;62.79;96787.66;10324601;28;20041;-27
2023/01/12 16:58:48;;;;;;;5.53;3.38;;;;;;;17.18;62.31;96769.09;10325150;28;20031;-27
2023/01/12 17:03:49;;;;;;;5.70;3.13;;;;;;;17.20;62.73;96777.50;10332199;28;20113;-27
2023/01/12 17:08:50;;;;;;;5.57;2.90;;;;;;;17.20;62.43;96782.56;10331398;28;20211;-27
2023/01/12 17:13:53;;;;;;;5.50;3.25;;;;;;;17.16;62.30;96776.66;10332381;28;20053;-26
2023/01/12 17:18:55;;;;;;;4.00;2.47;;;;;;;17.18;62.31;96780.06;10330870;28;20038;-27
2023/01/12 17:23:56;;;;;;;6.40;3.10;;;;;;;17.18;62.13;96777.53;10329709;28;20026;-27
2023/01/12 17:28:56;;;;;;;4.93;3.05;;;;;;;17.16;61.83;96769.06;10330974;28;20030;-27
2023/01/12 17:33:57;;;;;;;5.57;2.83;;;;;;;17.16;62.39;96770.75;10329392;28;20045;-27
2023/01/12 17:38:58;;;;;;;4.63;2.67;;;;;;;17.16;62.40;96781.72;10331209;28;20384;-27
2023/01/12 17:44:01;;;;;;;7.40;3.22;;;;;;;17.16;62.47;96770.75;10326076;28;20038;-27
2023/01/12 17:49:04;;;;;;;5.45;2.38;;;;;;;17.16;62.58;96750.53;10329615;28;20073;-27
2023/01/12 17:54:07;;;;;;;4.82;2.67;;;;;;;17.11;62.42;96744.59;10330071;28;20042;-27
2023/01/12 17:59:15;;;;;;;6.80;3.13;;;;;;;17.14;62.91;96752.22;10330383;28;20034;-27
2023/01/12 18:04:16;;;;;;;5.07;2.90;;;;;;;17.23;61.95;96749.72;10322865;28;20038;-26
2023/01/12 18:09:17;;;;;;;4.68;2.80;;;;;;;17.21;63.32;96743.78;10328571;28;20034;-27
2023/01/12 18:14:19;;;;;;;4.65;2.55;;;;;;;17.23;64.56;96734.53;10328333;28;20482;-27
2023/01/12 18:19:20;;;;;;;4.88;2.45;;;;;;;17.21;63.68;96748.84;10329076;28;20073;-27
2023/01/12 18:24:21;;;;;;;4.40;2.70;;;;;;;17.21;63.68;96738.72;10328788;28;20454;-27
2023/01/12 18:29:21;;;;;;;7.25;3.40;;;;;;;17.19;63.88;96746.34;10328749;28;20042;-27
2023/01/12 18:34:21;;;;;;;4.53;2.10;;;;;;;17.20;63.78;96754.75;10328838;28;20042;-27
2023/01/12 18:39:22;;;;;;;5.40;2.93;;;;;;;17.19;63.85;96746.34;10327868;28;20038;-33
2023/01/12 18:44:23;;;;;;;6.07;3.13;;;;;;;17.19;63.77;96753.91;10327534;28;20038;-27
2023/01/12 18:49:29;;;;;;;6.75;2.85;;;;;;;17.20;63.48;96747.16;10328432;28;20383;-27
2023/01/12 18:54:30;;;;;;;4.20;2.50;;;;;;;17.15;64.10;96739.53;10327744;28;20092;-27
2023/01/12 18:59:31;;;;;;;5.40;2.83;;;;;;;17.15;64.16;96743.78;10326787;28;20088;-27
2023/01/12 19:09:50;;;;;;;6.50;2.55;;;;;;;17.14;64.03;96737.03;10327364;28;20341;-27
2023/01/12 19:20:16;;;;;;;5.93;2.55;;;;;;;17.18;64.23;96705.84;10328285;28;20336;-27
2023/01/12 19:30:38;;;;;;;5.00;2.85;;;;;;;17.16;63.96;96740.41;10320633;28;20036;-26
2023/01/12 19:35:40;;;;;;;4.43;3.47;;;;;;;17.15;64.06;96724.38;10327274;28;20044;-27
2023/01/12 19:40:50;;;;;;;4.43;2.35;;;;;;;17.15;63.99;96718.47;10326969;28;20053;-27
2023/01/12 19:45:53;;;;;;;4.70;2.40;;;;;;;17.13;64.04;96704.94;10324151;28;20034;-27
2023/01/12 19:50:53;;;;;;;4.47;2.38;;;;;;;17.12;64.39;96699.06;10325912;28;20046;-27
2023/01/12 19:55:54;;;;;;;5.27;2.50;;;;;;;17.13;64.01;96692.31;10324372;28;20037;-27
2023/01/12 20:00:54;;;;;;;4.30;2.37;;;;;;;17.15;63.76;96693.19;10324096;28;20038;-27
2023/01/12 20:05:55;;;;;;;7.75;2.72;;;;;;;17.16;63.76;96680.53;10326125;28;20034;-27
2023/01/12 20:10:58;;;;;;;6.10;2.07;;;;;;;17.21;63.21;96667.88;10323736;28;20062;-27
2023/01/12 20:15:58;;;;;;;5.07;2.42;;;;;;;17.18;63.33;96663.69;10324748;28;20527;-27
2023/01/12 20:20:59;;;;;;;6.50;2.40;;;;;;;17.21;63.61;96683.06;10325642;28;20027;-27
2023/01/12 20:26:00;;;;;;;5.18;2.58;;;;;;;17.23;63.39;96656.13;10321784;28;20027;-27
2023/01/12 20:31:00;;;;;;;5.30;2.28;;;;;;;17.26;63.32;96646.81;10321081;28;20045;-27
2023/01/12 20:36:01;;;;;;;6.87;2.13;;;;;;;17.29;62.91;96656.13;10316878;28;20445;-27
2023/01/12 20:41:04;;;;;;;7.05;2.90;;;;;;;17.27;63.30;96647.69;10328572;28;20066;-27
2023/01/12 20:46:10;;;;;;;4.07;2.10;;;;;;;17.21;63.61;96663.69;10321528;28;20413;-27
2023/01/12 20:51:12;;;;;;;3.17;2.00;;;;;;;17.20;63.65;96654.41;10328266;28;20034;-27
2023/01/12 20:56:13;;;;;;;8.23;3.15;;;;;;;17.24;63.34;96670.44;10326047;28;20042;-27
2023/01/12 21:01:14;;;;;;;4.67;2.13;;;;;;;17.24;63.29;96648.50;10328218;28;20042;-27
2023/01/12 21:06:16;;;;;;;3.88;2.33;;;;;;;17.26;63.05;96658.66;10328365;28;20026;-27
2023/01/12 21:11:18;;;;;;;4.60;2.50;;;;;;;17.25;63.50;96644.31;10324170;28;20034;-27
2023/01/12 21:16:19;;;;;;;6.97;3.13;;;;;;;17.23;63.45;96651.06;10325452;28;20120;-27
2023/01/12 21:21:19;;;;;;;6.78;3.40;;;;;;;17.26;63.21;96656.13;10338032;28;20105;-27
2023/01/12 21:26:20;;;;;;;9.25;3.60;;;;;;;17.26;63.11;96635.88;10323396;28;20473;-27
2023/01/12 21:31:21;;;;;;;6.53;3.20;;;;;;;17.23;63.26;96641.75;10324067;28;20681;-26
2023/01/12 21:36:22;;;;;;;6.22;4.03;;;;;;;17.23;63.18;96644.28;10326141;28;20038;-25
2023/01/12 21:41:23;;;;;;;5.95;4.18;;;;;;;17.24;64.01;96613.09;10323712;28;20050;-25
2023/01/12 21:46:24;;;;;;;7.70;4.20;;;;;;;17.24;63.46;96604.69;10323590;28;20038;-25
2023/01/12 21:51:25;;;;;;;7.13;4.35;;;;;;;17.24;63.57;96607.19;10327279;28;20038;-25
2023/01/12 21:56:25;;;;;;;9.43;5.47;;;;;;;17.20;63.47;96618.13;10324784;28;20177;-25
2023/01/12 22:01:25;;;;;;;8.80;4.60;;;;;;;17.16;63.62;96608.88;10325435;28;20053;-25
2023/01/12 22:06:26;;;;;;;7.63;4.35;;;;;;;17.17;63.87;96635.84;10326563;28;20037;-25
2023/01/12 22:11:26;;;;;;;7.38;3.80;;;;;;;17.18;63.74;96622.34;10324244;28;20104;-25
2023/01/12 22:16:27;;;;;;;5.60;3.20;;;;;;;17.13;64.17;96606.31;10328477;28;20042;-25
2023/01/12 22:21:27;;;;;;;7.90;3.37;;;;;;;17.14;63.98;96618.97;10329226;28;20038;-25
2023/01/12 22:26:29;;;;;;;6.97;3.40;;;;;;;17.13;63.80;96604.63;10328871;28;20293;-25
2023/01/12 22:31:29;;;;;;;7.22;4.15;;;;;;;17.14;64.26;96621.50;10328421;28;20034;-25
2023/01/12 22:36:31;;;;;;;6.22;3.33;;;;;;;17.13;64.09;96619.81;10311399;28;20498;-25
2023/01/12 22:41:31;;;;;;;8.50;3.72;;;;;;;17.10;64.15;96614.75;10328341;28;20030;-25
2023/01/12 22:46:32;;;;;;;5.77;3.03;;;;;;;17.13;64.08;96629.94;10328125;28;20026;-27
2023/01/12 22:51:32;;;;;;;8.32;3.08;;;;;;;17.16;64.13;96626.56;10329010;28;20038;-25
2023/01/12 22:56:32;;;;;;;5.87;3.17;;;;;;;17.18;64.23;96642.59;10326958;28;20460;-25
2023/01/12 23:01:33;;;;;;;8.47;4.17;;;;;;;17.14;64.20;96633.31;10327158;28;20298;-25
2023/01/12 23:06:36;;;;;;;5.33;2.93;;;;;;;17.13;64.32;96613.88;10328325;28;20784;-28
2023/01/12 23:11:37;;;;;;;6.93;4.28;;;;;;;17.09;64.29;96622.31;10326815;28;20034;-27
2023/01/12 23:16:37;;;;;;;4.50;3.22;;;;;;;17.11;64.46;96626.56;10326361;28;20458;-25
2023/01/12 23:21:38;;;;;;;5.93;3.00;;;;;;;17.09;64.30;96607.16;10327959;28;20057;-25
2023/01/12 23:26:39;;;;;;;5.05;3.80;;;;;;;17.09;63.96;96597.03;10326261;28;20030;-25
2023/01/12 23:31:39;;;;;;;7.17;3.07;;;;;;;17.08;64.33;96595.34;10326496;28;20437;-25
2023/01/12 23:36:40;;;;;;;6.10;2.83;;;;;;;17.06;64.24;96571.75;10320867;28;20045;-25
2023/01/12 23:41:42;;;;;;;7.97;3.28;;;;;;;17.07;64.48;96573.44;10326026;28;20364;-25
2023/01/12 23:46:42;;;;;;;3.95;2.40;;;;;;;17.06;64.41;96579.31;10325937;28;20022;-25
2023/01/12 23:51:43;;;;;;;4.27;3.17;;;;;;;17.03;64.65;96557.41;10326850;28;20502;-25
2023/01/12 23:56:43;;;;;;;6.57;3.43;;;;;;;17.05;64.29;96548.13;10326045;28;20549;-25
